Parma — V2OZ9 — position and weather

sailwx.info

Track history (hours):
 
Tides and Currents Weather Stations Pressure Air Temp Water Temp Dewpoint Dewpoint Depression Visibility Wind Speed Wind Dir Waves Ship Positions

Parma

Last reported at 2016-Aug-23 00:20 UTC. Time now 2016-Aug-23 21:09 UTC.
Position N 40°45' E 029°08'.

MMSI: 279073176.

Date/timePositionNaut miles runAvg speedWind from/ knotsBaromVisibWave heightAir tempDewpointWater temp
2016-Aug-23 00:20N 40°45' E 029°08'7 9.3
2016-Aug-22 23:33N 40°44' E 029°17'  
2016-Aug-20 14:25N 40°46' E 029°33'0 0.0
2016-Aug-20 04:30N 40°46' E 029°33'2 0.1
2016-Aug-18 08:17N 40°45' E 029°30'810.1
2016-Aug-18 07:28N 40°43' E 029°19'1111.6
2016-Aug-18 06:33N 40°44' E 029°05'  
2016-Aug-14 03:23N 37°59' E 024°25'0 0.0
2016-Aug-14 02:32N 37°59' E 024°25'0 0.0
2016-Aug-14 01:26N 37°59' E 024°25'0 0.1
2016-Aug-14 00:33N 37°59' E 024°25'6 6.5
2016-Aug-13 23:33N 37°53' E 024°22'7 7.1
2016-Aug-13 22:33N 37°46' E 024°19'6 6.0
2016-Aug-13 21:32N 37°41' E 024°16'15 6.1
2016-Aug-13 19:09N 37°28' E 024°06'4 6.2
2016-Aug-13 18:33N 37°25' E 024°04'  
Track history (hours):
 
Tides and Currents Weather Stations Pressure Air Temp Water Temp Dewpoint Dewpoint Depression Visibility Wind Speed Wind Dir Waves Ship Positions

Parma

Last reported at 2016-Aug-23 00:20 UTC. Time now 2016-Aug-23 21:09 UTC.
Position N 40°45' E 029°08'.

MMSI: 279073176.

Date/timePositionNaut miles runAvg speedWind from/ knotsBaromVisibWave heightAir tempDewpointWater temp
2016-Aug-23 00:20N 40°45' E 029°08'7 9.3
2016-Aug-22 23:33N 40°44' E 029°17'  
2016-Aug-20 14:25N 40°46' E 029°33'0 0.0
2016-Aug-20 04:30N 40°46' E 029°33'2 0.1
2016-Aug-18 08:17N 40°45' E 029°30'810.1
2016-Aug-18 07:28N 40°43' E 029°19'1111.6
2016-Aug-18 06:33N 40°44' E 029°05'  
2016-Aug-14 03:23N 37°59' E 024°25'0 0.0
2016-Aug-14 02:32N 37°59' E 024°25'0 0.0
2016-Aug-14 01:26N 37°59' E 024°25'0 0.1
2016-Aug-14 00:33N 37°59' E 024°25'6 6.5
2016-Aug-13 23:33N 37°53' E 024°22'7 7.1
2016-Aug-13 22:33N 37°46' E 024°19'6 6.0
2016-Aug-13 21:32N 37°41' E 024°16'15 6.1
2016-Aug-13 19:09N 37°28' E 024°06'4 6.2
2016-Aug-13 18:33N 37°25' E 024°04'  

Dump ship's entire track history